sensor_id;sensor_type;location;lat;lon;timestamp;P1;durP1;ratioP1;P2;durP2;ratioP2
52470;SDS011;38382;53.160;7.026;2023-04-15T00:01:20;8.10;;;3.00;;
52470;SDS011;38382;53.160;7.026;2023-04-15T00:03:46;6.85;;;3.53;;
52470;SDS011;38382;53.160;7.026;2023-04-15T00:06:12;6.78;;;2.85;;
52470;SDS011;38382;53.160;7.026;2023-04-15T00:08:38;6.18;;;3.25;;
52470;SDS011;38382;53.160;7.026;2023-04-15T00:11:04;7.35;;;3.65;;
52470;SDS011;38382;53.160;7.026;2023-04-15T00:13:33;9.43;;;4.95;;
52470;SDS011;38382;53.160;7.026;2023-04-15T00:15:59;9.80;;;5.68;;
52470;SDS011;38382;53.160;7.026;2023-04-15T00:18:25;10.05;;;5.53;;
52470;SDS011;38382;53.160;7.026;2023-04-15T00:20:51;12.02;;;5.55;;
52470;SDS011;38382;53.160;7.026;2023-04-15T00:23:17;11.45;;;5.75;;
52470;SDS011;38382;53.160;7.026;2023-04-15T00:25:43;7.10;;;4.97;;
52470;SDS011;38382;53.160;7.026;2023-04-15T00:28:09;10.02;;;5.50;;
52470;SDS011;38382;53.160;7.026;2023-04-15T00:30:35;9.23;;;4.82;;
52470;SDS011;38382;53.160;7.026;2023-04-15T00:33:01;9.70;;;5.53;;
52470;SDS011;38382;53.160;7.026;2023-04-15T00:35:27;8.85;;;5.78;;
52470;SDS011;38382;53.160;7.026;2023-04-15T00:37:53;8.93;;;5.28;;
52470;SDS011;38382;53.160;7.026;2023-04-15T00:40:20;9.07;;;6.03;;
52470;SDS011;38382;53.160;7.026;2023-04-15T00:42:48;10.88;;;5.30;;
52470;SDS011;38382;53.160;7.026;2023-04-15T00:45:14;10.70;;;6.35;;
52470;SDS011;38382;53.160;7.026;2023-04-15T00:47:42;7.97;;;5.40;;
52470;SDS011;38382;53.160;7.026;2023-04-15T00:50:08;9.68;;;6.07;;
52470;SDS011;38382;53.160;7.026;2023-04-15T00:52:35;10.77;;;6.53;;
52470;SDS011;38382;53.160;7.026;2023-04-15T00:55:01;11.82;;;5.60;;
52470;SDS011;38382;53.160;7.026;2023-04-15T00:57:28;10.02;;;5.65;;
52470;SDS011;38382;53.160;7.026;2023-04-15T00:59:54;10.93;;;5.53;;
52470;SDS011;38382;53.160;7.026;2023-04-15T01:02:21;11.30;;;6.15;;
52470;SDS011;38382;53.160;7.026;2023-04-15T01:04:47;9.70;;;5.72;;
52470;SDS011;38382;53.160;7.026;2023-04-15T01:07:13;11.52;;;6.15;;
52470;SDS011;38382;53.160;7.026;2023-04-15T01:09:40;13.30;;;6.57;;
52470;SDS011;38382;53.160;7.026;2023-04-15T01:12:06;12.48;;;6.40;;
52470;SDS011;38382;53.160;7.026;2023-04-15T01:14:37;10.07;;;5.53;;
52470;SDS011;38382;53.160;7.026;2023-04-15T01:17:03;11.45;;;6.40;;
52470;SDS011;38382;53.160;7.026;2023-04-15T01:19:28;13.60;;;7.00;;
52470;SDS011;38382;53.160;7.026;2023-04-15T01:21:55;12.73;;;6.60;;
52470;SDS011;38382;53.160;7.026;2023-04-15T01:24:21;12.55;;;6.90;;
52470;SDS011;38382;53.160;7.026;2023-04-15T01:26:48;12.57;;;6.35;;
52470;SDS011;38382;53.160;7.026;2023-04-15T01:29:14;10.02;;;6.13;;
52470;SDS011;38382;53.160;7.026;2023-04-15T01:31:47;12.45;;;6.65;;
52470;SDS011;38382;53.160;7.026;2023-04-15T01:34:14;9.05;;;5.60;;
52470;SDS011;38382;53.160;7.026;2023-04-15T01:36:40;10.15;;;6.32;;
52470;SDS011;38382;53.160;7.026;2023-04-15T01:39:06;11.93;;;7.05;;
52470;SDS011;38382;53.160;7.026;2023-04-15T01:41:32;11.60;;;6.50;;
52470;SDS011;38382;53.160;7.026;2023-04-15T01:43:58;11.25;;;6.78;;
52470;SDS011;38382;53.160;7.026;2023-04-15T01:46:23;14.13;;;7.10;;
52470;SDS011;38382;53.160;7.026;2023-04-15T01:48:49;13.98;;;7.40;;
52470;SDS011;38382;53.160;7.026;2023-04-15T01:51:15;12.32;;;7.38;;
52470;SDS011;38382;53.160;7.026;2023-04-15T01:53:41;12.32;;;7.03;;
52470;SDS011;38382;53.160;7.026;2023-04-15T01:56:07;12.50;;;7.35;;
52470;SDS011;38382;53.160;7.026;2023-04-15T01:58:33;12.55;;;6.68;;
52470;SDS011;38382;53.160;7.026;2023-04-15T02:00:58;11.80;;;6.10;;
52470;SDS011;38382;53.160;7.026;2023-04-15T02:03:25;11.38;;;6.85;;
52470;SDS011;38382;53.160;7.026;2023-04-15T02:05:53;12.82;;;6.70;;
52470;SDS011;38382;53.160;7.026;2023-04-15T02:08:19;12.10;;;6.68;;
52470;SDS011;38382;53.160;7.026;2023-04-15T02:10:45;11.55;;;6.88;;
52470;SDS011;38382;53.160;7.026;2023-04-15T02:13:10;10.90;;;7.15;;
52470;SDS011;38382;53.160;7.026;2023-04-15T02:15:36;11.68;;;6.95;;
52470;SDS011;38382;53.160;7.026;2023-04-15T02:18:02;11.55;;;7.00;;
52470;SDS011;38382;53.160;7.026;2023-04-15T02:20:28;14.57;;;7.28;;
52470;SDS011;38382;53.160;7.026;2023-04-15T02:22:54;17.00;;;7.47;;
52470;SDS011;38382;53.160;7.026;2023-04-15T02:25:21;13.63;;;7.75;;
52470;SDS011;38382;53.160;7.026;2023-04-15T02:27:47;11.43;;;7.30;;
52470;SDS011;38382;53.160;7.026;2023-04-15T02:30:12;12.68;;;7.88;;
52470;SDS011;38382;53.160;7.026;2023-04-15T02:32:39;14.80;;;8.75;;
52470;SDS011;38382;53.160;7.026;2023-04-15T02:35:05;16.40;;;8.57;;
52470;SDS011;38382;53.160;7.026;2023-04-15T02:37:34;16.23;;;9.35;;
52470;SDS011;38382;53.160;7.026;2023-04-15T02:40:13;12.77;;;8.20;;
52470;SDS011;38382;53.160;7.026;2023-04-15T02:42:39;18.48;;;10.07;;
52470;SDS011;38382;53.160;7.026;2023-04-15T02:45:06;15.75;;;9.98;;
52470;SDS011;38382;53.160;7.026;2023-04-15T02:47:33;19.90;;;9.80;;
52470;SDS011;38382;53.160;7.026;2023-04-15T02:50:01;16.20;;;9.65;;
52470;SDS011;38382;53.160;7.026;2023-04-15T02:52:31;16.27;;;10.60;;
52470;SDS011;38382;53.160;7.026;2023-04-15T02:54:56;17.88;;;10.25;;
52470;SDS011;38382;53.160;7.026;2023-04-15T02:57:25;13.40;;;8.50;;
52470;SDS011;38382;53.160;7.026;2023-04-15T02:59:53;14.27;;;8.77;;
52470;SDS011;38382;53.160;7.026;2023-04-15T03:02:19;18.95;;;11.75;;
52470;SDS011;38382;53.160;7.026;2023-04-15T03:04:44;20.85;;;10.98;;
52470;SDS011;38382;53.160;7.026;2023-04-15T03:07:10;20.17;;;11.65;;
52470;SDS011;38382;53.160;7.026;2023-04-15T03:09:36;18.48;;;10.07;;
52470;SDS011;38382;53.160;7.026;2023-04-15T03:12:04;18.17;;;10.55;;
52470;SDS011;38382;53.160;7.026;2023-04-15T03:14:30;17.98;;;10.73;;
52470;SDS011;38382;53.160;7.026;2023-04-15T03:16:55;19.40;;;11.00;;
52470;SDS011;38382;53.160;7.026;2023-04-15T03:19:23;22.92;;;11.90;;
52470;SDS011;38382;53.160;7.026;2023-04-15T03:21:49;19.17;;;11.50;;
52470;SDS011;38382;53.160;7.026;2023-04-15T03:24:16;24.80;;;13.77;;
52470;SDS011;38382;53.160;7.026;2023-04-15T03:26:42;20.10;;;12.48;;
52470;SDS011;38382;53.160;7.026;2023-04-15T03:29:08;21.08;;;12.32;;
52470;SDS011;38382;53.160;7.026;2023-04-15T03:31:34;22.55;;;12.35;;
52470;SDS011;38382;53.160;7.026;2023-04-15T03:34:00;24.90;;;12.25;;
52470;SDS011;38382;53.160;7.026;2023-04-15T03:36:27;25.15;;;13.65;;
52470;SDS011;38382;53.160;7.026;2023-04-15T03:38:55;22.05;;;12.27;;
52470;SDS011;38382;53.160;7.026;2023-04-15T03:41:21;21.35;;;12.10;;
52470;SDS011;38382;53.160;7.026;2023-04-15T03:43:47;25.83;;;12.88;;
52470;SDS011;38382;53.160;7.026;2023-04-15T03:46:16;22.83;;;13.55;;
52470;SDS011;38382;53.160;7.026;2023-04-15T03:48:42;24.83;;;12.75;;
52470;SDS011;38382;53.160;7.026;2023-04-15T03:51:08;24.88;;;13.35;;
52470;SDS011;38382;53.160;7.026;2023-04-15T03:53:33;26.02;;;14.38;;
52470;SDS011;38382;53.160;7.026;2023-04-15T03:55:59;28.60;;;14.40;;
52470;SDS011;38382;53.160;7.026;2023-04-15T03:58:25;24.00;;;13.75;;
52470;SDS011;38382;53.160;7.026;2023-04-15T04:00:51;20.13;;;12.68;;
52470;SDS011;38382;53.160;7.026;2023-04-15T04:03:17;23.63;;;12.90;;
52470;SDS011;38382;53.160;7.026;2023-04-15T04:05:43;24.65;;;12.38;;
52470;SDS011;38382;53.160;7.026;2023-04-15T04:08:08;21.27;;;12.50;;
52470;SDS011;38382;53.160;7.026;2023-04-15T04:10:35;25.33;;;13.60;;
52470;SDS011;38382;53.160;7.026;2023-04-15T04:13:00;25.05;;;13.02;;
52470;SDS011;38382;53.160;7.026;2023-04-15T04:15:26;19.40;;;11.52;;
52470;SDS011;38382;53.160;7.026;2023-04-15T04:17:52;22.58;;;12.10;;
52470;SDS011;38382;53.160;7.026;2023-04-15T04:20:18;21.05;;;12.35;;
52470;SDS011;38382;53.160;7.026;2023-04-15T04:22:43;21.95;;;12.52;;
52470;SDS011;38382;53.160;7.026;2023-04-15T04:25:09;21.25;;;12.05;;
52470;SDS011;38382;53.160;7.026;2023-04-15T04:27:35;22.05;;;11.73;;
52470;SDS011;38382;53.160;7.026;2023-04-15T04:30:01;23.80;;;12.75;;
52470;SDS011;38382;53.160;7.026;2023-04-15T04:32:27;21.60;;;12.23;;
52470;SDS011;38382;53.160;7.026;2023-04-15T04:34:53;22.65;;;11.95;;
52470;SDS011;38382;53.160;7.026;2023-04-15T04:37:19;19.27;;;11.65;;
52470;SDS011;38382;53.160;7.026;2023-04-15T04:39:45;19.90;;;12.02;;
52470;SDS011;38382;53.160;7.026;2023-04-15T04:42:11;22.00;;;12.02;;
52470;SDS011;38382;53.160;7.026;2023-04-15T04:44:36;21.42;;;12.35;;
52470;SDS011;38382;53.160;7.026;2023-04-15T04:47:02;22.15;;;12.35;;
52470;SDS011;38382;53.160;7.026;2023-04-15T04:49:28;22.83;;;11.15;;
52470;SDS011;38382;53.160;7.026;2023-04-15T04:51:54;21.52;;;11.77;;
52470;SDS011;38382;53.160;7.026;2023-04-15T04:54:21;19.85;;;12.18;;
52470;SDS011;38382;53.160;7.026;2023-04-15T04:56:47;23.65;;;11.35;;
52470;SDS011;38382;53.160;7.026;2023-04-15T04:59:13;23.25;;;12.02;;
52470;SDS011;38382;53.160;7.026;2023-04-15T05:01:39;19.42;;;11.18;;
52470;SDS011;38382;53.160;7.026;2023-04-15T05:04:05;21.50;;;11.95;;
52470;SDS011;38382;53.160;7.026;2023-04-15T05:06:31;20.17;;;11.25;;
52470;SDS011;38382;53.160;7.026;2023-04-15T05:08:57;24.25;;;12.45;;
52470;SDS011;38382;53.160;7.026;2023-04-15T05:11:23;22.80;;;12.95;;
52470;SDS011;38382;53.160;7.026;2023-04-15T05:13:49;22.95;;;12.55;;
52470;SDS011;38382;53.160;7.026;2023-04-15T05:16:15;21.05;;;11.48;;
52470;SDS011;38382;53.160;7.026;2023-04-15T05:18:41;20.33;;;11.13;;
52470;SDS011;38382;53.160;7.026;2023-04-15T05:21:06;22.60;;;12.40;;
52470;SDS011;38382;53.160;7.026;2023-04-15T05:23:32;25.98;;;12.52;;
52470;SDS011;38382;53.160;7.026;2023-04-15T05:25:58;22.08;;;12.35;;
52470;SDS011;38382;53.160;7.026;2023-04-15T05:28:23;25.67;;;12.77;;
52470;SDS011;38382;53.160;7.026;2023-04-15T05:30:49;24.52;;;12.60;;
52470;SDS011;38382;53.160;7.026;2023-04-15T05:33:15;24.83;;;13.07;;
52470;SDS011;38382;53.160;7.026;2023-04-15T05:35:41;27.48;;;12.95;;
52470;SDS011;38382;53.160;7.026;2023-04-15T05:38:07;27.73;;;13.57;;
52470;SDS011;38382;53.160;7.026;2023-04-15T05:40:33;27.58;;;13.43;;
52470;SDS011;38382;53.160;7.026;2023-04-15T05:42:58;30.80;;;13.68;;
52470;SDS011;38382;53.160;7.026;2023-04-15T05:45:24;28.85;;;14.05;;
52470;SDS011;38382;53.160;7.026;2023-04-15T05:47:50;26.95;;;13.30;;
52470;SDS011;38382;53.160;7.026;2023-04-15T05:50:18;24.60;;;12.23;;
52470;SDS011;38382;53.160;7.026;2023-04-15T05:52:45;23.70;;;11.68;;
52470;SDS011;38382;53.160;7.026;2023-04-15T05:55:10;20.90;;;11.93;;
52470;SDS011;38382;53.160;7.026;2023-04-15T05:57:36;22.42;;;11.43;;
52470;SDS011;38382;53.160;7.026;2023-04-15T06:00:03;21.00;;;11.02;;
52470;SDS011;38382;53.160;7.026;2023-04-15T06:02:29;21.33;;;12.02;;
52470;SDS011;38382;53.160;7.026;2023-04-15T06:04:55;24.35;;;11.95;;
52470;SDS011;38382;53.160;7.026;2023-04-15T06:07:22;20.98;;;11.38;;
52470;SDS011;38382;53.160;7.026;2023-04-15T06:09:48;20.13;;;12.00;;
52470;SDS011;38382;53.160;7.026;2023-04-15T06:12:14;19.15;;;10.57;;
52470;SDS011;38382;53.160;7.026;2023-04-15T06:14:40;22.30;;;11.13;;
52470;SDS011;38382;53.160;7.026;2023-04-15T06:17:06;21.80;;;10.55;;
52470;SDS011;38382;53.160;7.026;2023-04-15T06:19:32;20.40;;;10.63;;
52470;SDS011;38382;53.160;7.026;2023-04-15T06:21:59;20.27;;;10.40;;
52470;SDS011;38382;53.160;7.026;2023-04-15T06:24:25;21.42;;;10.88;;
52470;SDS011;38382;53.160;7.026;2023-04-15T06:26:51;20.10;;;10.98;;
52470;SDS011;38382;53.160;7.026;2023-04-15T06:29:17;21.95;;;11.35;;
52470;SDS011;38382;53.160;7.026;2023-04-15T06:31:42;16.65;;;10.00;;
52470;SDS011;38382;53.160;7.026;2023-04-15T06:34:08;16.50;;;9.68;;
52470;SDS011;38382;53.160;7.026;2023-04-15T06:36:35;13.98;;;8.95;;
52470;SDS011;38382;53.160;7.026;2023-04-15T06:39:00;14.95;;;8.82;;
52470;SDS011;38382;53.160;7.026;2023-04-15T06:41:26;16.50;;;8.45;;
52470;SDS011;38382;53.160;7.026;2023-04-15T06:43:52;17.70;;;9.68;;
52470;SDS011;38382;53.160;7.026;2023-04-15T06:46:18;13.43;;;8.27;;
52470;SDS011;38382;53.160;7.026;2023-04-15T06:48:44;14.88;;;8.82;;
52470;SDS011;38382;53.160;7.026;2023-04-15T06:51:13;14.68;;;8.65;;
52470;SDS011;38382;53.160;7.026;2023-04-15T06:53:38;18.00;;;8.55;;
52470;SDS011;38382;53.160;7.026;2023-04-15T06:56:07;16.15;;;8.77;;
52470;SDS011;38382;53.160;7.026;2023-04-15T06:58:33;14.07;;;8.73;;
52470;SDS011;38382;53.160;7.026;2023-04-15T07:00:59;14.82;;;7.90;;
52470;SDS011;38382;53.160;7.026;2023-04-15T07:03:25;12.80;;;7.47;;
52470;SDS011;38382;53.160;7.026;2023-04-15T07:05:51;12.77;;;7.60;;
52470;SDS011;38382;53.160;7.026;2023-04-15T07:08:18;14.75;;;8.40;;
52470;SDS011;38382;53.160;7.026;2023-04-15T07:10:44;11.65;;;7.18;;
52470;SDS011;38382;53.160;7.026;2023-04-15T07:13:11;15.07;;;8.30;;
52470;SDS011;38382;53.160;7.026;2023-04-15T07:15:37;14.00;;;8.20;;
52470;SDS011;38382;53.160;7.026;2023-04-15T07:18:02;19.08;;;8.23;;
52470;SDS011;38382;53.160;7.026;2023-04-15T07:20:28;14.63;;;8.05;;
52470;SDS011;38382;53.160;7.026;2023-04-15T07:22:54;13.20;;;8.27;;
52470;SDS011;38382;53.160;7.026;2023-04-15T07:25:23;14.43;;;8.48;;
52470;SDS011;38382;53.160;7.026;2023-04-15T07:27:49;13.00;;;8.05;;
52470;SDS011;38382;53.160;7.026;2023-04-15T07:30:15;13.63;;;7.60;;
52470;SDS011;38382;53.160;7.026;2023-04-15T07:32:42;9.98;;;6.70;;
52470;SDS011;38382;53.160;7.026;2023-04-15T07:35:07;13.05;;;6.28;;
52470;SDS011;38382;53.160;7.026;2023-04-15T07:37:34;10.93;;;5.78;;
52470;SDS011;38382;53.160;7.026;2023-04-15T07:40:00;9.95;;;5.68;;
52470;SDS011;38382;53.160;7.026;2023-04-15T07:42:26;10.38;;;5.80;;
52470;SDS011;38382;53.160;7.026;2023-04-15T07:44:53;12.07;;;5.10;;
52470;SDS011;38382;53.160;7.026;2023-04-15T07:47:19;9.57;;;5.60;;
52470;SDS011;38382;53.160;7.026;2023-04-15T07:49:45;10.25;;;5.13;;
52470;SDS011;38382;53.160;7.026;2023-04-15T07:52:11;10.80;;;5.68;;
52470;SDS011;38382;53.160;7.026;2023-04-15T07:54:37;9.98;;;5.30;;
52470;SDS011;38382;53.160;7.026;2023-04-15T07:57:02;10.13;;;5.53;;
52470;SDS011;38382;53.160;7.026;2023-04-15T07:59:28;10.30;;;5.40;;
52470;SDS011;38382;53.160;7.026;2023-04-15T08:01:55;7.80;;;5.10;;
52470;SDS011;38382;53.160;7.026;2023-04-15T08:04:21;9.35;;;5.38;;
52470;SDS011;38382;53.160;7.026;2023-04-15T08:06:47;9.35;;;5.82;;
52470;SDS011;38382;53.160;7.026;2023-04-15T08:09:14;6.88;;;4.75;;
52470;SDS011;38382;53.160;7.026;2023-04-15T08:11:40;8.48;;;4.63;;
52470;SDS011;38382;53.160;7.026;2023-04-15T08:14:06;7.65;;;4.20;;
52470;SDS011;38382;53.160;7.026;2023-04-15T08:16:32;7.07;;;4.68;;
52470;SDS011;38382;53.160;7.026;2023-04-15T08:18:58;7.30;;;4.43;;
52470;SDS011;38382;53.160;7.026;2023-04-15T08:21:23;7.13;;;3.92;;
52470;SDS011;38382;53.160;7.026;2023-04-15T08:23:50;8.20;;;4.50;;
52470;SDS011;38382;53.160;7.026;2023-04-15T08:26:17;7.72;;;4.40;;
52470;SDS011;38382;53.160;7.026;2023-04-15T08:28:43;8.32;;;4.40;;
52470;SDS011;38382;53.160;7.026;2023-04-15T08:31:10;5.95;;;4.00;;
52470;SDS011;38382;53.160;7.026;2023-04-15T08:33:41;8.32;;;3.83;;
52470;SDS011;38382;53.160;7.026;2023-04-15T08:36:07;6.10;;;3.80;;
52470;SDS011;38382;53.160;7.026;2023-04-15T08:38:33;9.05;;;4.57;;
52470;SDS011;38382;53.160;7.026;2023-04-15T08:41:02;6.82;;;3.90;;
52470;SDS011;38382;53.160;7.026;2023-04-15T08:43:34;6.45;;;4.03;;
52470;SDS011;38382;53.160;7.026;2023-04-15T08:46:09;7.25;;;3.75;;
52470;SDS011;38382;53.160;7.026;2023-04-15T08:48:36;7.05;;;3.97;;
52470;SDS011;38382;53.160;7.026;2023-04-15T08:51:05;10.05;;;3.67;;
52470;SDS011;38382;53.160;7.026;2023-04-15T08:53:31;8.52;;;3.92;;
52470;SDS011;38382;53.160;7.026;2023-04-15T08:55:58;8.40;;;3.55;;
52470;SDS011;38382;53.160;7.026;2023-04-15T08:58:28;7.25;;;3.50;;
52470;SDS011;38382;53.160;7.026;2023-04-15T09:00:55;9.77;;;3.30;;
52470;SDS011;38382;53.160;7.026;2023-04-15T09:03:21;5.30;;;3.30;;
52470;SDS011;38382;53.160;7.026;2023-04-15T09:05:49;9.23;;;3.63;;
52470;SDS011;38382;53.160;7.026;2023-04-15T09:08:15;9.40;;;3.67;;
52470;SDS011;38382;53.160;7.026;2023-04-15T09:10:41;7.40;;;3.65;;
52470;SDS011;38382;53.160;7.026;2023-04-15T09:13:06;6.47;;;3.22;;
52470;SDS011;38382;53.160;7.026;2023-04-15T09:15:33;7.30;;;3.30;;
52470;SDS011;38382;53.160;7.026;2023-04-15T09:18:02;7.80;;;3.40;;
52470;SDS011;38382;53.160;7.026;2023-04-15T09:20:28;7.07;;;3.40;;
52470;SDS011;38382;53.160;7.026;2023-04-15T09:22:54;7.88;;;3.55;;
52470;SDS011;38382;53.160;7.026;2023-04-15T09:27:53;5.50;;;3.05;;
52470;SDS011;38382;53.160;7.026;2023-04-15T09:30:23;6.35;;;2.90;;
52470;SDS011;38382;53.160;7.026;2023-04-15T09:35:15;6.50;;;2.95;;
52470;SDS011;38382;53.160;7.026;2023-04-15T09:37:41;6.55;;;3.10;;
52470;SDS011;38382;53.160;7.026;2023-04-15T09:40:07;6.05;;;2.83;;
52470;SDS011;38382;53.160;7.026;2023-04-15T09:42:34;5.95;;;2.78;;
52470;SDS011;38382;53.160;7.026;2023-04-15T09:45:10;7.45;;;3.40;;
52470;SDS011;38382;53.160;7.026;2023-04-15T09:47:36;5.97;;;3.17;;
52470;SDS011;38382;53.160;7.026;2023-04-15T09:50:02;8.60;;;3.53;;
52470;SDS011;38382;53.160;7.026;2023-04-15T09:52:28;4.82;;;2.90;;
52470;SDS011;38382;53.160;7.026;2023-04-15T09:54:58;7.82;;;3.45;;
52470;SDS011;38382;53.160;7.026;2023-04-15T09:57:25;9.70;;;3.20;;
52470;SDS011;38382;53.160;7.026;2023-04-15T09:59:59;5.78;;;2.80;;
52470;SDS011;38382;53.160;7.026;2023-04-15T10:02:25;9.57;;;3.63;;
52470;SDS011;38382;53.160;7.026;2023-04-15T10:04:52;7.53;;;3.00;;
52470;SDS011;38382;53.160;7.026;2023-04-15T10:07:19;7.65;;;3.10;;
52470;SDS011;38382;53.160;7.026;2023-04-15T10:09:49;6.25;;;3.10;;
52470;SDS011;38382;53.160;7.026;2023-04-15T10:12:16;6.00;;;3.25;;
52470;SDS011;38382;53.160;7.026;2023-04-15T10:14:42;7.25;;;3.03;;
52470;SDS011;38382;53.160;7.026;2023-04-15T10:17:10;5.65;;;2.92;;
52470;SDS011;38382;53.160;7.026;2023-04-15T10:19:38;6.65;;;3.00;;
52470;SDS011;38382;53.160;7.026;2023-04-15T10:22:05;9.23;;;2.85;;
52470;SDS011;38382;53.160;7.026;2023-04-15T10:24:32;5.60;;;3.17;;
52470;SDS011;38382;53.160;7.026;2023-04-15T10:26:58;9.40;;;3.00;;
52470;SDS011;38382;53.160;7.026;2023-04-15T10:29:25;6.13;;;2.67;;
52470;SDS011;38382;53.160;7.026;2023-04-15T10:31:57;5.60;;;2.92;;
52470;SDS011;38382;53.160;7.026;2023-04-15T10:34:23;5.60;;;3.40;;
52470;SDS011;38382;53.160;7.026;2023-04-15T10:36:50;5.78;;;2.83;;
52470;SDS011;38382;53.160;7.026;2023-04-15T10:39:52;5.95;;;2.72;;
52470;SDS011;38382;53.160;7.026;2023-04-15T10:42:12;4.53;;;2.60;;
52470;SDS011;38382;53.160;7.026;2023-04-15T10:44:50;4.50;;;2.42;;
52470;SDS011;38382;53.160;7.026;2023-04-15T10:47:20;5.07;;;3.03;;
52470;SDS011;38382;53.160;7.026;2023-04-15T10:52:17;6.85;;;2.80;;
52470;SDS011;38382;53.160;7.026;2023-04-15T10:54:47;5.88;;;2.58;;
52470;SDS011;38382;53.160;7.026;2023-04-15T10:57:22;4.80;;;2.85;;
52470;SDS011;38382;53.160;7.026;2023-04-15T11:08:17;7.22;;;2.60;;
52470;SDS011;38382;53.160;7.026;2023-04-15T11:15:41;6.30;;;2.78;;
52470;SDS011;38382;53.160;7.026;2023-04-15T11:18:15;8.13;;;2.67;;
52470;SDS011;38382;53.160;7.026;2023-04-15T11:20:50;5.45;;;2.58;;
52470;SDS011;38382;53.160;7.026;2023-04-15T11:23:40;5.78;;;2.40;;
52470;SDS011;38382;53.160;7.026;2023-04-15T11:26:12;4.95;;;2.53;;
52470;SDS011;38382;53.160;7.026;2023-04-15T11:28:40;8.23;;;2.72;;
52470;SDS011;38382;53.160;7.026;2023-04-15T11:31:11;7.68;;;2.50;;
52470;SDS011;38382;53.160;7.026;2023-04-15T11:33:44;5.47;;;2.20;;
52470;SDS011;38382;53.160;7.026;2023-04-15T11:38:48;5.45;;;2.38;;
52470;SDS011;38382;53.160;7.026;2023-04-15T11:41:13;7.38;;;2.45;;
52470;SDS011;38382;53.160;7.026;2023-04-15T11:43:39;9.05;;;2.83;;
52470;SDS011;38382;53.160;7.026;2023-04-15T11:46:05;6.82;;;2.17;;
52470;SDS011;38382;53.160;7.026;2023-04-15T11:48:34;6.38;;;2.58;;
52470;SDS011;38382;53.160;7.026;2023-04-15T11:51:01;10.57;;;2.90;;
52470;SDS011;38382;53.160;7.026;2023-04-15T11:53:38;9.90;;;2.50;;
52470;SDS011;38382;53.160;7.026;2023-04-15T11:56:05;6.88;;;2.40;;
52470;SDS011;38382;53.160;7.026;2023-04-15T11:58:33;6.35;;;2.30;;
52470;SDS011;38382;53.160;7.026;2023-04-15T12:01:02;7.93;;;2.17;;
52470;SDS011;38382;53.160;7.026;2023-04-15T12:03:29;8.27;;;2.30;;
52470;SDS011;38382;53.160;7.026;2023-04-15T12:06:03;7.85;;;2.55;;
52470;SDS011;38382;53.160;7.026;2023-04-15T12:11:20;6.55;;;2.00;;
52470;SDS011;38382;53.160;7.026;2023-04-15T12:14:02;6.25;;;2.00;;
52470;SDS011;38382;53.160;7.026;2023-04-15T12:16:30;6.70;;;2.13;;
52470;SDS011;38382;53.160;7.026;2023-04-15T12:18:58;4.97;;;2.30;;
52470;SDS011;38382;53.160;7.026;2023-04-15T12:21:25;10.00;;;2.38;;
52470;SDS011;38382;53.160;7.026;2023-04-15T12:23:56;8.75;;;2.15;;
52470;SDS011;38382;53.160;7.026;2023-04-15T12:26:30;10.63;;;2.33;;
52470;SDS011;38382;53.160;7.026;2023-04-15T12:29:09;9.82;;;2.53;;
52470;SDS011;38382;53.160;7.026;2023-04-15T12:31:36;7.97;;;2.38;;
52470;SDS011;38382;53.160;7.026;2023-04-15T12:34:11;9.50;;;2.80;;
52470;SDS011;38382;53.160;7.026;2023-04-15T12:36:38;10.32;;;2.60;;
52470;SDS011;38382;53.160;7.026;2023-04-15T12:39:04;9.60;;;2.35;;
52470;SDS011;38382;53.160;7.026;2023-04-15T12:41:30;7.53;;;2.38;;
52470;SDS011;38382;53.160;7.026;2023-04-15T12:43:57;11.25;;;2.30;;
52470;SDS011;38382;53.160;7.026;2023-04-15T12:46:23;10.70;;;2.08;;
52470;SDS011;38382;53.160;7.026;2023-04-15T12:48:50;8.50;;;2.60;;
52470;SDS011;38382;53.160;7.026;2023-04-15T12:51:19;12.48;;;2.42;;
52470;SDS011;38382;53.160;7.026;2023-04-15T12:53:47;8.85;;;2.20;;
52470;SDS011;38382;53.160;7.026;2023-04-15T12:56:13;7.50;;;2.47;;
52470;SDS011;38382;53.160;7.026;2023-04-15T12:58:40;9.68;;;2.63;;
52470;SDS011;38382;53.160;7.026;2023-04-15T13:01:07;9.88;;;2.40;;
52470;SDS011;38382;53.160;7.026;2023-04-15T13:03:34;6.25;;;2.47;;
52470;SDS011;38382;53.160;7.026;2023-04-15T13:05:59;8.23;;;2.22;;
52470;SDS011;38382;53.160;7.026;2023-04-15T13:08:26;10.73;;;2.40;;
52470;SDS011;38382;53.160;7.026;2023-04-15T13:10:52;6.70;;;2.00;;
52470;SDS011;38382;53.160;7.026;2023-04-15T13:13:18;9.18;;;2.35;;
52470;SDS011;38382;53.160;7.026;2023-04-15T13:15:43;7.75;;;2.38;;
52470;SDS011;38382;53.160;7.026;2023-04-15T13:18:10;9.10;;;2.33;;
52470;SDS011;38382;53.160;7.026;2023-04-15T13:20:36;7.65;;;2.63;;
52470;SDS011;38382;53.160;7.026;2023-04-15T13:23:01;9.55;;;2.70;;
52470;SDS011;38382;53.160;7.026;2023-04-15T13:25:27;8.00;;;2.53;;
52470;SDS011;38382;53.160;7.026;2023-04-15T13:27:53;7.32;;;2.30;;
52470;SDS011;38382;53.160;7.026;2023-04-15T13:30:19;8.90;;;2.40;;
52470;SDS011;38382;53.160;7.026;2023-04-15T13:32:45;8.82;;;2.58;;
52470;SDS011;38382;53.160;7.026;2023-04-15T13:35:10;12.18;;;2.47;;
52470;SDS011;38382;53.160;7.026;2023-04-15T13:37:36;9.05;;;2.40;;
52470;SDS011;38382;53.160;7.026;2023-04-15T13:40:03;10.32;;;2.30;;
52470;SDS011;38382;53.160;7.026;2023-04-15T13:42:31;12.05;;;2.80;;
52470;SDS011;38382;53.160;7.026;2023-04-15T13:44:56;8.15;;;2.20;;
52470;SDS011;38382;53.160;7.026;2023-04-15T13:47:22;6.32;;;2.20;;
52470;SDS011;38382;53.160;7.026;2023-04-15T13:49:48;8.30;;;2.80;;
52470;SDS011;38382;53.160;7.026;2023-04-15T13:52:14;10.07;;;2.70;;
52470;SDS011;38382;53.160;7.026;2023-04-15T13:54:39;7.15;;;2.20;;
52470;SDS011;38382;53.160;7.026;2023-04-15T13:57:05;10.63;;;2.60;;
52470;SDS011;38382;53.160;7.026;2023-04-15T13:59:32;5.65;;;2.40;;
52470;SDS011;38382;53.160;7.026;2023-04-15T14:01:58;7.28;;;2.47;;
52470;SDS011;38382;53.160;7.026;2023-04-15T14:04:24;7.20;;;2.45;;
52470;SDS011;38382;53.160;7.026;2023-04-15T14:06:50;11.63;;;2.83;;
52470;SDS011;38382;53.160;7.026;2023-04-15T14:09:16;12.65;;;2.92;;
52470;SDS011;38382;53.160;7.026;2023-04-15T14:11:41;10.90;;;3.15;;
52470;SDS011;38382;53.160;7.026;2023-04-15T14:14:07;9.27;;;3.10;;
52470;SDS011;38382;53.160;7.026;2023-04-15T14:16:33;11.20;;;3.30;;
52470;SDS011;38382;53.160;7.026;2023-04-15T14:19:00;7.60;;;3.33;;
52470;SDS011;38382;53.160;7.026;2023-04-15T14:21:26;10.85;;;3.22;;
52470;SDS011;38382;53.160;7.026;2023-04-15T14:23:54;10.38;;;3.50;;
52470;SDS011;38382;53.160;7.026;2023-04-15T14:26:19;14.65;;;3.42;;
52470;SDS011;38382;53.160;7.026;2023-04-15T14:28:45;13.50;;;3.50;;
52470;SDS011;38382;53.160;7.026;2023-04-15T14:31:12;11.82;;;3.35;;
52470;SDS011;38382;53.160;7.026;2023-04-15T14:33:38;12.23;;;3.60;;
52470;SDS011;38382;53.160;7.026;2023-04-15T14:36:04;12.13;;;3.90;;
52470;SDS011;38382;53.160;7.026;2023-04-15T14:38:32;12.60;;;3.40;;
52470;SDS011;38382;53.160;7.026;2023-04-15T14:41:03;10.73;;;3.60;;
52470;SDS011;38382;53.160;7.026;2023-04-15T14:43:29;9.73;;;3.72;;
52470;SDS011;38382;53.160;7.026;2023-04-15T14:45:54;11.57;;;3.53;;
52470;SDS011;38382;53.160;7.026;2023-04-15T14:48:20;9.60;;;3.20;;
52470;SDS011;38382;53.160;7.026;2023-04-15T14:50:46;16.45;;;4.10;;
52470;SDS011;38382;53.160;7.026;2023-04-15T14:53:12;12.88;;;4.05;;
52470;SDS011;38382;53.160;7.026;2023-04-15T14:55:37;15.43;;;3.83;;
52470;SDS011;38382;53.160;7.026;2023-04-15T14:58:04;17.63;;;4.03;;
52470;SDS011;38382;53.160;7.026;2023-04-15T15:00:32;14.18;;;4.05;;